Time;durP1;ratioP1;P1;durP2;ratioP2;P2;SDS_P1;SDS_P2;PMS_P1;PMS_P2;Temp;Humidity;BMP_temperature;BMP_pressure;BME280_temperature;BME280_humidity;BME280_pressure;Samples;Min_cycle;Max_cycle;Signal;HPM_P1;HPM_P2
2023/04/30 00:00:24;;;;;;;19.67;11.85;;;;;;;12.31;61.87;102485.31;4978973;28;20026;-42
2023/04/30 00:02:49;;;;;;;19.88;11.70;;;;;;;12.36;61.55;102485.47;4989126;28;20065;-42
2023/04/30 00:05:15;;;;;;;21.02;10.45;;;;;;;12.42;61.84;102478.69;4984579;28;20030;-41
2023/04/30 00:07:41;;;;;;;19.55;10.65;;;;;;;12.38;61.50;102479.41;4983936;28;20417;-42
2023/04/30 00:10:08;;;;;;;16.90;9.70;;;;;;;12.41;62.61;102473.41;4982350;28;20353;-41
2023/04/30 00:12:34;;;;;;;18.02;9.77;;;;;;;12.47;62.26;102481.44;4979569;28;20122;-45
2023/04/30 00:15:00;;;;;;;15.98;9.82;;;;;;;12.52;61.99;102472.91;4985215;28;20063;-43
2023/04/30 00:17:25;;;;;;;17.98;10.25;;;;;;;12.60;61.76;102481.88;4985935;28;20523;-44
2023/04/30 00:19:51;;;;;;;16.50;9.70;;;;;;;12.46;61.93;102482.28;4988172;28;20038;-43
2023/04/30 00:22:16;;;;;;;18.05;10.13;;;;;;;12.50;62.13;102497.25;4983015;28;20404;-42
2023/04/30 00:24:42;;;;;;;18.23;9.98;;;;;;;12.60;61.29;102486.22;4986771;28;20039;-45
2023/04/30 00:27:07;;;;;;;16.45;10.00;;;;;;;12.57;61.11;102491.34;4986655;28;20039;-45
2023/04/30 00:29:32;;;;;;;19.55;9.88;;;;;;;12.51;61.62;102501.63;4982706;28;20054;-42
2023/04/30 00:31:57;;;;;;;16.23;10.05;;;;;;;12.44;60.98;102487.47;4986316;28;20034;-44
2023/04/30 00:34:23;;;;;;;16.98;10.65;;;;;;;12.47;60.94;102502.38;4983538;28;20106;-41
2023/04/30 00:36:48;;;;;;;17.48;9.98;;;;;;;12.39;61.10;102502.13;4986323;28;20041;-46
2023/04/30 00:39:14;;;;;;;20.27;11.30;;;;;;;12.26;61.32;102499.94;4982372;28;20404;-40
2023/04/30 00:41:40;;;;;;;18.38;10.27;;;;;;;12.20;61.31;102492.81;4987344;28;20112;-41
2023/04/30 00:44:05;;;;;;;18.60;10.20;;;;;;;12.17;61.46;102497.94;4985680;28;20030;-43
2023/04/30 00:46:30;;;;;;;21.88;10.85;;;;;;;12.07;61.68;102502.84;4982592;28;23647;-42
2023/04/30 00:48:56;;;;;;;18.73;10.60;;;;;;;12.07;61.68;102505.44;4986259;28;20126;-41
2023/04/30 00:51:22;;;;;;;18.50;11.02;;;;;;;12.01;61.84;102497.41;4982626;28;20062;-41
2023/04/30 00:53:48;;;;;;;18.33;10.85;;;;;;;11.92;62.22;102495.34;4986174;28;20042;-47
2023/04/30 00:56:17;;;;;;;20.52;11.73;;;;;;;11.90;61.89;102503.97;4982142;28;20035;-38
2023/04/30 00:58:42;;;;;;;17.80;11.20;;;;;;;11.87;62.26;102503.88;4985894;28;20054;-44
2023/04/30 01:01:07;;;;;;;20.30;10.82;;;;;;;11.86;62.73;102502.09;4985889;28;20461;-44
2023/04/30 01:03:34;;;;;;;19.55;10.68;;;;;;;11.83;62.17;102505.50;4982407;28;20100;-43
2023/04/30 01:06:00;;;;;;;17.80;10.52;;;;;;;11.86;62.25;102502.09;4986054;28;20034;-44
2023/04/30 01:08:26;;;;;;;21.92;11.05;;;;;;;11.82;62.77;102503.72;4981892;28;20520;-43
2023/04/30 01:11:03;;;;;;;19.20;10.48;;;;;;;11.81;62.57;102503.66;4985418;28;20432;-44
2023/04/30 01:13:37;;;;;;;21.35;10.93;;;;;;;11.82;62.79;102508.06;4982340;28;20030;-42
2023/04/30 01:16:15;;;;;;;16.83;10.23;;;;;;;11.84;62.74;102508.97;4985051;28;20084;-43
2023/04/30 01:18:48;;;;;;;17.80;10.10;;;;;;;11.78;63.15;102505.34;4982724;28;20489;-45
2023/04/30 01:21:16;;;;;;;19.58;9.75;;;;;;;11.74;62.87;102508.69;4982118;28;20034;-42
2023/04/30 01:24:27;;;;;;;19.83;10.68;;;;;;;11.74;63.03;102511.28;4986052;28;20572;-41
2023/04/30 01:27:33;;;;;;;17.83;10.50;;;;;;;11.72;63.17;102515.53;4983264;28;20046;-44
2023/04/30 01:30:00;;;;;;;17.50;9.82;;;;;;;11.71;63.15;102521.59;4984996;28;20034;-44
2023/04/30 01:32:25;;;;;;;19.70;10.80;;;;;;;11.69;63.24;102514.56;4982441;28;20037;-44
2023/04/30 01:34:51;;;;;;;16.35;9.93;;;;;;;11.66;63.23;102514.44;4985780;28;20034;-44
2023/04/30 01:37:40;;;;;;;17.25;9.70;;;;;;;11.68;63.22;102513.66;4985447;28;20054;-42
2023/04/30 01:40:17;;;;;;;18.15;10.18;;;;;;;11.64;63.20;102511.78;4989278;28;20060;-45
2023/04/30 01:42:42;;;;;;;19.02;10.23;;;;;;;11.63;63.34;102509.13;4983899;28;20456;-42
2023/04/30 01:45:14;;;;;;;18.05;10.65;;;;;;;11.57;63.65;102506.28;4985154;28;20038;-44
2023/04/30 01:47:49;;;;;;;20.80;11.18;;;;;;;11.55;63.68;102506.22;4982792;28;20039;-44
2023/04/30 01:50:27;;;;;;;20.55;10.98;;;;;;;11.53;63.66;102499.16;4984063;28;20034;-42
2023/04/30 01:52:58;;;;;;;19.10;10.63;;;;;;;11.57;63.61;102507.19;4990624;28;20061;-41
2023/04/30 01:55:33;;;;;;;18.42;10.63;;;;;;;11.61;63.41;102501.22;4988273;28;20030;-42
2023/04/30 01:58:01;;;;;;;18.98;10.93;;;;;;;11.58;63.85;102498.53;4991142;28;20030;-42
2023/04/30 02:00:31;;;;;;;23.05;11.73;;;;;;;11.57;64.18;102499.34;4987299;28;20523;-42
2023/04/30 02:02:57;;;;;;;20.85;11.30;;;;;;;11.55;64.68;102498.41;4992017;28;20073;-44
2023/04/30 02:05:23;;;;;;;23.00;11.77;;;;;;;11.61;64.76;102497.72;4988698;28;20093;-43
2023/04/30 02:07:50;;;;;;;23.10;11.52;;;;;;;11.67;63.97;102505.75;4993013;28;20113;-41
2023/04/30 02:10:16;;;;;;;18.65;11.18;;;;;;;11.68;63.93;102511.06;4989794;28;20038;-43
2023/04/30 02:12:42;;;;;;;21.25;11.32;;;;;;;11.66;63.60;102506.59;4993748;28;20043;-42
2023/04/30 02:15:08;;;;;;;19.52;11.27;;;;;;;11.65;63.83;102505.69;4988641;28;20110;-43
2023/04/30 02:17:33;;;;;;;20.50;11.20;;;;;;;11.58;63.96;102503.75;4982357;28;20040;-43
2023/04/30 02:19:59;;;;;;;21.52;11.80;;;;;;;11.48;64.26;102505.94;4985234;28;20105;-45
2023/04/30 02:22:25;;;;;;;20.52;10.95;;;;;;;11.44;64.61;102504.06;4982496;28;20030;-44
2023/04/30 02:24:52;;;;;;;18.50;10.68;;;;;;;11.42;64.16;102500.50;4986305;23;20513;-43
2023/04/30 02:27:18;;;;;;;18.77;11.15;;;;;;;11.37;64.11;102500.34;4982666;28;20444;-43
2023/04/30 02:29:44;;;;;;;22.27;11.15;;;;;;;11.33;64.32;102499.38;4985059;28;20042;-43
2023/04/30 02:32:09;;;;;;;21.52;11.73;;;;;;;11.28;64.47;102503.50;4985947;28;20045;-43
2023/04/30 02:34:34;;;;;;;19.15;10.95;;;;;;;11.25;64.87;102497.28;4981441;28;20031;-44
2023/04/30 02:37:01;;;;;;;18.13;10.88;;;;;;;11.27;64.18;102498.25;4985077;28;20678;-46
2023/04/30 02:39:27;;;;;;;20.20;11.55;;;;;;;11.17;64.97;102494.41;4983459;28;20061;-43
2023/04/30 02:41:52;;;;;;;22.73;11.98;;;;;;;11.26;65.79;102493.84;4987623;28;20093;-43
2023/04/30 02:44:17;;;;;;;21.63;11.45;;;;;;;11.35;65.36;102495.06;4983305;28;20519;-42
2023/04/30 02:46:43;;;;;;;23.48;12.02;;;;;;;11.40;65.29;102490.88;4985228;28;20038;-43
2023/04/30 02:49:08;;;;;;;22.67;11.82;;;;;;;11.36;65.51;102495.97;4985046;28;20031;-45
2023/04/30 02:51:33;;;;;;;21.25;12.05;;;;;;;11.38;65.51;102491.69;4983581;28;20200;-43
2023/04/30 02:53:59;;;;;;;24.17;11.98;;;;;;;11.39;65.99;102490.88;4985783;28;20057;-43
2023/04/30 02:56:24;;;;;;;22.55;12.25;;;;;;;11.44;65.46;102501.47;4981517;28;20030;-42
2023/04/30 02:58:49;;;;;;;20.40;11.75;;;;;;;11.49;65.00;102500.78;4985209;28;20046;-44
2023/04/30 03:01:15;;;;;;;23.38;12.85;;;;;;;11.39;65.42;102490.88;4982212;28;20034;-45
2023/04/30 03:03:40;;;;;;;23.88;11.82;;;;;;;11.43;65.20;102494.47;4986697;28;20046;-43
2023/04/30 03:06:06;;;;;;;23.13;12.05;;;;;;;11.32;65.55;102492.38;4985579;28;20100;-43
2023/04/30 03:08:31;;;;;;;21.33;12.07;;;;;;;11.38;65.40;102489.97;4982217;28;20038;-47
2023/04/30 03:10:56;;;;;;;23.23;11.93;;;;;;;11.45;65.83;102491.06;4985619;28;20038;-43
2023/04/30 03:13:24;;;;;;;21.70;12.18;;;;;;;11.46;65.94;102495.47;4982460;28;20035;-47
2023/04/30 03:15:56;;;;;;;23.58;12.88;;;;;;;11.26;67.10;102504.31;4985668;28;20070;-46
2023/04/30 03:18:22;;;;;;;22.58;11.38;;;;;;;11.53;65.80;102500.06;4983060;28;20030;-44
2023/04/30 03:20:47;;;;;;;23.95;12.85;;;;;;;11.49;66.28;102507.72;4984504;28;20052;-43
2023/04/30 03:23:12;;;;;;;21.92;12.07;;;;;;;11.55;65.88;102507.94;4983527;28;20085;-44
2023/04/30 03:25:38;;;;;;;19.33;11.57;;;;;;;11.45;65.73;102517.19;4983727;28;20034;-48
2023/04/30 03:28:03;;;;;;;24.63;12.15;;;;;;;11.43;66.42;102510.13;4984942;28;20536;-46
2023/04/30 03:30:29;;;;;;;21.23;12.05;;;;;;;11.48;65.84;102501.63;4980814;28;20041;-43
2023/04/30 03:32:54;;;;;;;21.23;12.30;;;;;;;11.49;65.79;102502.50;4987329;28;20081;-43
2023/04/30 03:35:19;;;;;;;23.48;12.70;;;;;;;11.44;66.41;102504.06;4983395;28;20068;-41
2023/04/30 03:37:45;;;;;;;20.30;11.75;;;;;;;11.43;65.88;102495.34;4984706;28;20468;-45
2023/04/30 03:40:10;;;;;;;22.45;12.15;;;;;;;11.38;65.92;102489.06;4983678;28;20141;-43
2023/04/30 03:42:36;;;;;;;19.90;11.73;;;;;;;11.43;65.76;102492.75;4981184;28;20034;-43
2023/04/30 03:45:01;;;;;;;22.85;11.88;;;;;;;11.44;65.62;102496.25;4983980;28;20141;-46
2023/04/30 03:47:26;;;;;;;20.73;11.73;;;;;;;11.40;65.63;102488.28;4984284;28;20034;-43
2023/04/30 03:49:53;;;;;;;19.50;11.65;;;;;;;11.39;65.77;102488.25;4984910;28;20405;-45
2023/04/30 03:52:20;;;;;;;21.15;11.55;;;;;;;11.34;65.60;102480.22;4980458;28;20034;-43
2023/04/30 03:54:45;;;;;;;20.30;11.05;;;;;;;11.08;67.55;102488.84;4983043;28;20038;-43
2023/04/30 03:57:12;;;;;;;21.10;11.43;;;;;;;11.29;66.72;102476.56;4985153;28;20049;-43
2023/04/30 03:59:38;;;;;;;20.98;11.70;;;;;;;11.32;67.38;102478.41;4980859;28;20031;-44
2023/04/30 04:02:05;;;;;;;18.55;10.68;;;;;;;11.27;66.97;102473.03;4983765;28;20042;-44
2023/04/30 04:04:30;;;;;;;20.05;10.77;;;;;;;11.20;68.23;102481.47;4981042;28;20385;-44
2023/04/30 04:06:56;;;;;;;20.55;10.90;;;;;;;11.30;67.34;102465.28;4984052;28;20125;-48
2023/04/30 04:09:21;;;;;;;18.83;11.38;;;;;;;11.65;66.31;102476.97;4980105;28;20034;-46
2023/04/30 04:11:47;;;;;;;20.13;11.20;;;;;;;11.50;66.91;102470.34;4983176;28;20031;-44
2023/04/30 04:14:12;;;;;;;19.50;10.77;;;;;;;11.60;66.29;102473.31;4980991;28;20061;-44
2023/04/30 04:16:38;;;;;;;19.98;11.07;;;;;;;11.61;66.31;102469.88;4984291;28;20026;-43
2023/04/30 04:19:03;;;;;;;20.08;10.73;;;;;;;11.32;66.84;102475.81;4984180;28;20045;-45
2023/04/30 04:21:28;;;;;;;19.73;10.93;;;;;;;11.28;67.53;102474.78;4981196;28;20030;-43
2023/04/30 04:23:54;;;;;;;19.20;11.30;;;;;;;11.38;67.61;102471.69;4983769;28;20061;-43
2023/04/30 04:26:20;;;;;;;19.17;11.00;;;;;;;11.64;66.48;102480.44;4981108;28;20097;-43
2023/04/30 04:28:46;;;;;;;20.15;10.88;;;;;;;11.61;66.71;102485.53;4984012;28;20122;-43
2023/04/30 04:31:12;;;;;;;17.15;9.88;;;;;;;11.58;66.88;102481.94;4981893;28;20034;-43
2023/04/30 04:33:37;;;;;;;19.80;10.38;;;;;;;11.47;67.53;102478.94;4983666;28;20173;-46
2023/04/30 04:36:03;;;;;;;18.00;10.00;;;;;;;11.56;67.71;102481.00;4984786;28;22826;-43
2023/04/30 04:38:28;;;;;;;16.48;9.93;;;;;;;11.56;67.13;102483.63;4982851;28;20026;-48
2023/04/30 04:40:54;;;;;;;14.90;9.60;;;;;;;12.03;66.23;102482.63;4985803;28;20030;-46
2023/04/30 04:43:20;;;;;;;17.42;9.60;;;;;;;12.10;65.43;102488.13;4982411;28;20057;-47
2023/04/30 04:45:46;;;;;;;17.70;10.05;;;;;;;12.14;65.47;102499.56;4986751;28;20077;-43
2023/04/30 04:48:12;;;;;;;15.30;9.23;;;;;;;12.04;65.60;102495.75;4983293;28;20109;-51
2023/04/30 04:50:37;;;;;;;15.32;9.73;;;;;;;12.10;65.44;102490.75;4986937;28;20038;-43
2023/04/30 04:53:03;;;;;;;19.20;10.23;;;;;;;12.02;65.86;102502.66;4986948;28;20037;-45
2023/04/30 04:55:28;;;;;;;15.95;9.90;;;;;;;11.80;66.55;102502.78;4981444;28;20034;-48
2023/04/30 04:57:53;;;;;;;17.88;10.40;;;;;;;12.27;65.41;102500.84;4982898;28;20097;-44
2023/04/30 05:00:21;;;;;;;19.80;10.55;;;;;;;12.37;65.18;102497.72;4979896;28;20038;-43
2023/04/30 05:02:46;;;;;;;16.58;9.65;;;;;;;12.38;65.03;102505.56;4985521;28;20515;-48
2023/04/30 05:05:12;;;;;;;15.23;8.85;;;;;;;12.36;64.41;102509.88;4985326;28;20039;-53
2023/04/30 05:07:37;;;;;;;15.55;9.00;;;;;;;12.49;64.90;102503.31;4985786;28;20042;-46
2023/04/30 05:10:03;;;;;;;17.30;8.77;;;;;;;12.61;65.14;102508.94;4986516;28;20042;-43
2023/04/30 05:12:28;;;;;;;18.02;9.15;;;;;;;12.64;64.52;102506.41;4983322;28;20374;-43
2023/04/30 05:14:53;;;;;;;13.57;8.30;;;;;;;12.72;64.76;102498.78;4987009;28;20038;-48
2023/04/30 05:17:18;;;;;;;13.65;9.07;;;;;;;12.87;65.29;102501.84;4983792;28;20044;-43
2023/04/30 05:19:46;;;;;;;13.63;8.75;;;;;;;13.11;65.00;102501.72;4990095;28;20034;-53
2023/04/30 05:22:11;;;;;;;14.68;9.18;;;;;;;13.11;63.80;102506.94;4989695;28;20041;-43
2023/04/30 05:24:37;;;;;;;16.48;9.93;;;;;;;13.40;61.38;102496.47;4982533;28;20429;-42
2023/04/30 05:27:03;;;;;;;16.95;10.18;;;;;;;13.27;60.58;102496.97;4986497;28;20038;-43
2023/04/30 05:29:29;;;;;;;15.15;9.63;;;;;;;13.48;59.05;102490.56;4981815;28;20033;-43
2023/04/30 05:31:54;;;;;;;15.38;9.48;;;;;;;13.66;59.92;102491.06;4984383;28;20042;-46
2023/04/30 05:34:20;;;;;;;15.43;9.45;;;;;;;13.67;59.64;102492.81;4982434;28;20041;-42
2023/04/30 05:36:45;;;;;;;15.77;9.38;;;;;;;14.22;58.59;102495.97;4986191;28;20058;-43
2023/04/30 05:39:10;;;;;;;12.32;8.10;;;;;;;14.13;57.74;102495.78;4986489;28;20054;-43
2023/04/30 05:41:36;;;;;;;12.23;7.97;;;;;;;14.37;55.65;102497.22;4983869;28;20818;-43
2023/04/30 05:44:03;;;;;;;13.73;8.10;;;;;;;14.86;55.61;102499.25;4986923;28;20174;-44
2023/04/30 05:46:29;;;;;;;14.32;7.97;;;;;;;15.24;53.99;102497.41;4984245;28;20101;-44
2023/04/30 05:48:54;;;;;;;12.88;7.68;;;;;;;15.75;52.51;102497.53;4986557;28;20038;-42
2023/04/30 05:51:20;;;;;;;13.02;7.53;;;;;;;16.40;50.57;102506.53;4983610;28;20038;-43
2023/04/30 05:53:45;;;;;;;11.25;7.20;;;;;;;17.33;49.80;102506.06;4986440;28;20385;-45
2023/04/30 05:56:11;;;;;;;10.10;6.90;;;;;;;17.84;46.35;102504.88;4986165;28;20097;-43
2023/04/30 05:58:37;;;;;;;10.77;6.85;;;;;;;18.90;44.18;102505.69;4982258;28;20030;-42
2023/04/30 06:01:03;;;;;;;11.85;7.20;;;;;;;18.95;42.91;102501.31;4987069;28;20034;-43
2023/04/30 06:03:28;;;;;;;11.45;6.60;;;;;;;19.89;41.57;102494.50;4982691;28;20085;-43
2023/04/30 06:05:53;;;;;;;9.93;6.40;;;;;;;21.09;39.67;102489.94;4985755;28;20049;-47
2023/04/30 06:08:19;;;;;;;8.43;6.35;;;;;;;20.46;38.36;102496.28;4981975;28;20049;-43
2023/04/30 06:10:44;;;;;;;11.65;6.55;;;;;;;21.55;37.09;102489.69;4986254;28;20061;-46
2023/04/30 06:13:09;;;;;;;8.55;6.07;;;;;;;21.98;36.59;102493.84;4985884;28;20041;-43
2023/04/30 06:15:35;;;;;;;11.15;7.10;;;;;;;21.28;36.56;102504.91;4981755;28;20058;-43
2023/04/30 06:18:00;;;;;;;9.40;6.35;;;;;;;21.82;37.08;102498.38;4986251;28;20084;-43
2023/04/30 06:20:28;;;;;;;9.90;6.03;;;;;;;22.80;34.73;102494.84;4983002;28;20396;-43
2023/04/30 06:22:54;;;;;;;8.27;6.03;;;;;;;22.72;34.58;102497.59;4986893;28;20034;-44
2023/04/30 06:25:22;;;;;;;8.48;5.70;;;;;;;22.49;34.48;102492.50;4980758;28;20042;-43
2023/04/30 06:27:47;;;;;;;8.60;5.40;;;;;;;22.61;35.25;102497.69;4987164;28;20042;-44
2023/04/30 06:30:13;;;;;;;8.75;5.20;;;;;;;22.50;35.25;102496.91;4986718;28;20511;-46
2023/04/30 06:32:38;;;;;;;7.28;5.45;;;;;;;22.57;34.99;102495.94;4989608;28;20034;-45
2023/04/30 06:35:04;;;;;;;9.40;5.47;;;;;;;22.69;34.29;102494.91;4989282;28;20556;-43
2023/04/30 06:37:34;;;;;;;7.40;5.40;;;;;;;22.52;34.86;102488.91;4985226;28;20034;-43
2023/04/30 06:40:00;;;;;;;7.47;5.70;;;;;;;22.95;33.90;102494.66;4985172;28;20038;-42
2023/04/30 06:42:25;;;;;;;9.27;5.50;;;;;;;23.01;33.61;102492.78;4983265;28;20038;-44
2023/04/30 06:44:50;;;;;;;8.95;5.43;;;;;;;22.84;34.10;102493.91;4985462;28;20081;-43
2023/04/30 06:47:16;;;;;;;8.07;5.40;;;;;;;23.01;33.90;102498.13;4983256;28;20030;-44
2023/04/30 06:49:41;;;;;;;9.82;5.68;;;;;;;23.10;33.34;102493.59;4987161;28;20101;-43
2023/04/30 06:52:07;;;;;;;7.57;5.38;;;;;;;23.51;33.35;102501.03;4985554;28;20058;-43
2023/04/30 06:54:32;;;;;;;7.88;5.50;;;;;;;23.11;34.05;102493.56;4983362;28;20045;-45
2023/04/30 06:56:57;;;;;;;7.65;4.90;;;;;;;23.73;33.12;102507.78;4985292;28;20408;-43
2023/04/30 06:59:23;;;;;;;10.75;5.85;;;;;;;23.92;32.22;102503.94;4982933;28;20041;-42
2023/04/30 07:01:48;;;;;;;9.52;5.60;;;;;;;23.45;32.74;102502.84;4985648;28;20565;-45
2023/04/30 07:04:13;;;;;;;8.82;6.13;;;;;;;23.15;33.95;102492.63;4982512;28;20046;-46
2023/04/30 07:06:39;;;;;;;9.45;5.35;;;;;;;24.05;32.47;102494.84;4986012;28;20058;-45
2023/04/30 07:09:04;;;;;;;8.55;5.88;;;;;;;23.99;32.66;102504.72;4986897;28;20035;-43
2023/04/30 07:11:30;;;;;;;8.25;5.65;;;;;;;23.67;33.02;102505.22;4983070;28;20043;-43
2023/04/30 07:13:55;;;;;;;9.63;5.53;;;;;;;24.16;32.39;102508.84;4986477;28;20444;-45
2023/04/30 07:16:21;;;;;;;8.73;5.80;;;;;;;23.50;33.60;102513.47;4980853;28;20109;-45
2023/04/30 07:18:49;;;;;;;7.47;5.38;;;;;;;23.65;33.10;102505.25;4984494;28;20038;-45
2023/04/30 07:21:15;;;;;;;8.20;5.78;;;;;;;23.80;33.68;102513.00;4981577;28;20033;-45
2023/04/30 07:23:41;;;;;;;7.63;5.60;;;;;;;24.87;30.97;102506.69;4985111;28;20042;-45
2023/04/30 07:26:06;;;;;;;8.48;5.65;;;;;;;24.70;31.30;102508.81;4984718;28;20133;-45
2023/04/30 07:28:32;;;;;;;7.75;5.82;;;;;;;24.35;30.76;102505.91;4981740;28;20548;-46
2023/04/30 07:30:57;;;;;;;8.20;5.82;;;;;;;23.55;33.24;102511.59;4985074;28;20061;-45
2023/04/30 07:33:22;;;;;;;7.78;5.65;;;;;;;24.10;32.87;102516.06;4980961;28;20038;-45
2023/04/30 07:35:48;;;;;;;10.02;5.28;;;;;;;24.51;31.87;102508.28;4984502;28;20085;-48
2023/04/30 07:38:13;;;;;;;8.40;5.35;;;;;;;25.03;30.58;102499.25;4982042;28;20077;-45
2023/04/30 07:40:39;;;;;;;10.38;5.10;;;;;;;25.58;29.89;102501.63;4983714;28;20037;-45
2023/04/30 07:43:04;;;;;;;8.70;5.85;;;;;;;25.01;31.12;102499.28;4984188;28;20053;-44
2023/04/30 07:45:30;;;;;;;7.15;5.60;;;;;;;24.76;31.51;102505.16;4981947;28;20045;-43
2023/04/30 07:47:56;;;;;;;7.93;5.38;;;;;;;25.53;30.78;102502.63;4984160;28;20058;-44
2023/04/30 07:50:21;;;;;;;7.38;5.50;;;;;;;25.22;30.35;102503.31;4982020;28;20066;-44
2023/04/30 07:52:49;;;;;;;10.43;5.90;;;;;;;24.30;32.33;102498.00;4986397;28;20027;-43
2023/04/30 07:55:14;;;;;;;10.05;5.72;;;;;;;25.56;29.95;102502.53;4982193;28;20032;-51
2023/04/30 07:57:40;;;;;;;8.75;5.80;;;;;;;24.54;30.95;102502.88;4985101;28;20037;-43
2023/04/30 08:00:06;;;;;;;7.55;5.78;;;;;;;24.95;30.80;102506.53;4984715;28;20027;-45
2023/04/30 08:02:32;;;;;;;6.72;5.18;;;;;;;24.57;30.44;102504.63;4981898;28;20036;-45
2023/04/30 08:04:57;;;;;;;8.70;5.38;;;;;;;24.19;32.04;102508.84;4984891;28;20568;-49
2023/04/30 08:07:24;;;;;;;7.28;5.18;;;;;;;24.40;31.54;102509.34;4980978;28;20061;-43
2023/04/30 08:09:49;;;;;;;10.75;6.22;;;;;;;23.02;34.15;102509.63;4984575;28;20041;-45
2023/04/30 08:12:15;;;;;;;7.90;6.10;;;;;;;22.51;35.01;102511.94;4980157;28;20034;-47
2023/04/30 08:14:41;;;;;;;11.48;6.22;;;;;;;21.62;37.24;102515.31;4985055;28;20404;-46
2023/04/30 08:17:06;;;;;;;9.70;6.60;;;;;;;20.93;38.46;102509.41;4984576;28;20109;-45
2023/04/30 08:19:32;;;;;;;10.73;6.60;;;;;;;20.58;39.26;102510.41;4980231;28;20085;-44
2023/04/30 08:21:57;;;;;;;10.40;6.85;;;;;;;19.72;40.75;102513.03;4983845;28;20178;-44
2023/04/30 08:24:23;;;;;;;10.35;6.18;;;;;;;19.70;40.66;102518.31;4979864;28;20034;-44
2023/04/30 08:26:48;;;;;;;8.32;6.18;;;;;;;19.74;41.35;102509.50;4997203;23;20047;-43
2023/04/30 08:29:13;;;;;;;8.60;6.43;;;;;;;19.13;42.56;102507.53;4979435;28;20058;-42
2023/04/30 08:31:39;;;;;;;8.55;6.18;;;;;;;19.41;42.66;102512.91;4983414;28;20397;-44
2023/04/30 08:34:04;;;;;;;9.48;6.78;;;;;;;19.42;42.28;102508.53;4983019;28;20485;-43
2023/04/30 08:36:29;;;;;;;9.38;6.10;;;;;;;18.55;43.24;102516.03;4981335;28;20504;-45
2023/04/30 08:38:56;;;;;;;10.25;6.32;;;;;;;18.84;44.28;102512.69;4987583;28;20053;-47
2023/04/30 08:41:25;;;;;;;9.13;6.93;;;;;;;18.78;44.92;102518.84;4983793;28;20034;-45
2023/04/30 08:43:52;;;;;;;9.43;6.43;;;;;;;18.63;44.82;102513.44;4986750;28;20034;-44
2023/04/30 08:46:19;;;;;;;9.57;6.70;;;;;;;18.48;44.84;102513.31;4981413;28;20038;-43
2023/04/30 08:48:47;;;;;;;10.68;6.45;;;;;;;18.61;45.19;102510.78;4987333;28;20038;-47
2023/04/30 08:51:13;;;;;;;7.93;5.90;;;;;;;18.51;44.51;102506.28;4984147;28;20034;-59
2023/04/30 08:53:40;;;;;;;8.80;6.03;;;;;;;19.15;43.71;102506.66;4986850;28;20030;-42
2023/04/30 08:56:09;;;;;;;8.27;5.30;;;;;;;19.15;44.00;102511.09;4987369;28;20030;-43
2023/04/30 08:58:34;;;;;;;8.65;5.30;;;;;;;19.58;43.23;102510.34;4982571;28;20038;-44
2023/04/30 09:01:01;;;;;;;7.97;5.63;;;;;;;19.47;44.09;102513.84;4987212;28;20061;-48
2023/04/30 09:03:27;;;;;;;8.38;6.05;;;;;;;18.93;43.46;102510.97;4983321;28;20022;-47
2023/04/30 09:05:53;;;;;;;9.20;5.90;;;;;;;19.00;43.49;102504.84;4986309;28;20041;-48
2023/04/30 09:08:38;;;;;;;8.00;5.50;;;;;;;19.00;43.88;102507.50;4983536;28;20069;-43
2023/04/30 09:11:20;;;;;;;7.88;4.97;;;;;;;19.52;43.05;102507.69;4987087;28;20356;-44
2023/04/30 09:13:46;;;;;;;9.38;5.45;;;;;;;19.42;43.36;102508.53;4984627;28;20039;-44
2023/04/30 09:16:11;;;;;;;8.70;5.72;;;;;;;19.42;43.15;102511.16;4986431;28;20057;-44
2023/04/30 09:18:38;;;;;;;6.72;4.70;;;;;;;19.42;42.58;102505.88;4982000;28;20041;-42
2023/04/30 09:21:07;;;;;;;7.15;4.82;;;;;;;19.53;42.77;102506.81;4985703;28;20046;-45
2023/04/30 09:23:32;;;;;;;8.35;6.05;;;;;;;19.15;43.47;102509.28;4982278;28;20038;-43
2023/04/30 09:25:57;;;;;;;7.78;5.32;;;;;;;19.30;42.53;102504.06;4985865;28;20480;-46
2023/04/30 09:28:25;;;;;;;7.35;5.20;;;;;;;19.28;42.71;102497.88;4931124;28;20098;-43
2023/04/30 09:30:51;;;;;;;6.85;4.82;;;;;;;18.99;42.78;102497.78;4986061;28;20062;-46
2023/04/30 09:33:17;;;;;;;6.80;5.10;;;;;;;19.49;42.93;102498.88;4983709;28;20105;-43
2023/04/30 09:35:42;;;;;;;7.63;5.00;;;;;;;19.61;42.09;102502.44;4988185;28;20034;-46
2023/04/30 09:38:26;;;;;;;6.95;4.53;;;;;;;19.39;41.93;102497.94;4991710;28;20041;-44
2023/04/30 09:40:51;;;;;;;6.30;4.80;;;;;;;19.74;42.21;102501.56;4989216;28;20129;-44
2023/04/30 09:43:17;;;;;;;8.18;5.30;;;;;;;19.47;42.50;102501.50;4986492;28;20057;-44
2023/04/30 09:45:46;;;;;;;7.60;4.95;;;;;;;19.25;43.20;102499.66;4989785;28;20417;-47
2023/04/30 09:48:11;;;;;;;9.60;5.65;;;;;;;19.28;43.62;102495.25;4984297;28;20035;-45
2023/04/30 09:50:40;;;;;;;8.10;5.00;;;;;;;19.25;42.85;102494.38;4983001;28;20096;-44
2023/04/30 09:53:12;;;;;;;9.45;5.40;;;;;;;19.05;42.84;102489.88;4986242;28;20392;-44
2023/04/30 09:55:37;;;;;;;6.88;4.90;;;;;;;19.43;42.78;102497.06;4982811;28;20030;-44
2023/04/30 09:58:05;;;;;;;7.20;4.57;;;;;;;19.61;43.04;102494.50;4984331;28;20041;-46
2023/04/30 10:00:33;;;;;;;7.00;4.57;;;;;;;19.79;41.89;102491.00;4983589;28;20034;-46
2023/04/30 10:03:00;;;;;;;7.63;4.90;;;;;;;19.31;42.39;102494.38;4986630;28;20039;-42
2023/04/30 10:05:26;;;;;;;7.50;4.65;;;;;;;19.33;43.64;102485.56;4982673;28;20035;-44
2023/04/30 10:07:52;;;;;;;6.97;5.20;;;;;;;19.63;42.57;102486.56;4986077;28;20453;-44
2023/04/30 10:10:18;;;;;;;8.95;6.18;;;;;;;19.97;42.90;102483.06;4982147;28;20061;-49
2023/04/30 10:12:49;;;;;;;8.20;6.15;;;;;;;19.30;43.49;102466.16;4986037;28;20035;-46
2023/04/30 10:15:24;;;;;;;9.48;5.18;;;;;;;19.41;43.16;102482.94;4977752;28;20034;-45
2023/04/30 10:17:59;;;;;;;7.38;4.85;;;;;;;19.89;42.39;102476.88;4980422;28;20497;-41
2023/04/30 10:20:25;;;;;;;5.35;3.55;;;;;;;19.90;41.26;102473.34;4974490;28;20030;-46
2023/04/30 10:22:52;;;;;;;5.78;4.22;;;;;;;19.67;41.90;102477.75;4985147;28;20037;-44
2023/04/30 10:25:18;;;;;;;6.55;4.90;;;;;;;20.03;41.43;102474.22;4980975;28;20567;-43
2023/04/30 10:27:45;;;;;;;7.22;4.97;;;;;;;20.13;42.26;102468.91;4983908;28;20038;-43
2023/04/30 10:30:11;;;;;;;7.03;5.20;;;;;;;19.98;40.46;102470.72;4985986;28;20093;-45
2023/04/30 10:32:46;;;;;;;4.78;3.75;;;;;;;19.77;40.29;102460.97;4978359;28;20037;-44
2023/04/30 10:35:35;;;;;;;6.88;4.57;;;;;;;19.97;41.22;102467.19;4986041;28;20578;-44
2023/04/30 10:38:11;;;;;;;7.40;4.63;;;;;;;19.85;42.16;102461.88;4983888;28;20042;-47
2023/04/30 10:40:37;;;;;;;8.80;4.95;;;;;;;19.93;41.13;102454.84;4982088;28;20085;-43
2023/04/30 10:43:02;;;;;;;6.13;4.50;;;;;;;19.92;40.77;102458.34;4985088;28;20030;-46
2023/04/30 10:45:42;;;;;;;5.53;4.40;;;;;;;19.83;41.61;102451.28;4981458;28;20129;-46
2023/04/30 10:48:08;;;;;;;5.32;3.95;;;;;;;20.05;39.66;102443.34;4984352;28;20053;-43
2023/04/30 10:50:41;;;;;;;3.83;3.00;;;;;;;20.15;39.60;102450.41;4980661;28;20077;-44
2023/04/30 10:53:06;;;;;;;4.70;3.40;;;;;;;20.16;39.16;102439.81;4985517;28;20113;-47
2023/04/30 10:55:32;;;;;;;4.20;2.80;;;;;;;19.93;39.26;102443.34;4984852;28;20140;-45
2023/04/30 10:57:58;;;;;;;5.40;2.80;;;;;;;20.67;38.70;102430.88;4988003;28;20400;-46
2023/04/30 11:00:26;;;;;;;2.58;2.10;;;;;;;20.12;37.97;102435.41;4981744;28;20041;-41
2023/04/30 11:02:56;;;;;;;2.30;1.60;;;;;;;20.30;36.48;102423.00;4985072;28;20501;-43
2023/04/30 11:05:34;;;;;;;4.28;2.65;;;;;;;20.28;38.37;102417.72;4984723;28;20057;-46
2023/04/30 11:08:00;;;;;;;4.22;2.65;;;;;;;20.38;38.65;102421.25;4989305;28;20477;-45
2023/04/30 11:10:27;;;;;;;4.47;3.10;;;;;;;20.62;39.05;102414.09;4981108;28;20040;-42
2023/04/30 11:12:54;;;;;;;4.88;3.22;;;;;;;20.13;40.16;102410.66;4984454;28;20088;-45
2023/04/30 11:15:30;;;;;;;4.82;3.90;;;;;;;20.40;39.83;102406.25;4980983;28;20602;-46